Latest Weather Observations for Melbourne (Olympic Park)

IDV60901

Issued at 11:41 pm EDT Saturday 16 December 2017 (issued every 10 minutes, with the page automatically refreshed every 10 minutes)

About weather observations | Map of Melbourne area stations | Latest observations for Melbourne area | Other Formats
Station Details ID: 086338 Name: MELBOURNE (OLYMPIC PARK) Lat: -37.83 Lon: 144.98 Height: 7.53 m
Data from the previous 72 hours. | See also: Recent months at Melbourne (Olympic Park)
Date/Time
EDT
Temp
°C
App
Temp
°C
Dew
Point
°C
Rel
Hum
%
Delta-T
°C
Wind Press
QNH
hPa
Press
MSL
hPa
Rain since
9am
mm
Dir  Spd
km/h
Gust
km/h
Spd
kts
Gust
kts
16/11:30pm 18.1 17.6 12.5 70 3.1 S 7 13 4 7 1017.5 1017.5 0.0
16/11:00pm 18.4 17.2 11.7 65 3.7 S 9 19 5 10 1017.5 1017.5 0.0
16/10:30pm 18.7 16.9 11.0 61 4.2 S 11 19 6 10 1017.1 1017.1 0.0
16/10:00pm 18.9 17.1 11.0 60 4.3 SSE 11 20 6 11 1016.8 1016.8 0.0
16/09:30pm 19.5 17.1 10.0 54 5.1 SSE 13 24 7 13 1016.5 1016.5 0.0
16/09:00pm 20.1 17.8 10.5 54 5.2 SSE 13 28 7 15 1016.2 1016.2 0.0
16/08:30pm 20.7 18.5 10.8 53 5.4 S 13 22 7 12 1015.9 1015.9 0.0
16/08:00pm 21.0 18.7 11.9 56 5.1 S 15 28 8 15 1015.5 1015.5 0.0
16/07:30pm 22.1 20.4 12.4 54 5.5 SSW 13 24 7 13 1015.0 1015.0 0.0
16/07:00pm 22.5 20.4 12.4 52 5.7 SSW 15 26 8 14 1014.7 1014.7 0.0
16/06:30pm 22.3 21.1 13.9 59 4.9 SSW 13 24 7 13 1014.6 1014.6 0.0
16/06:00pm 22.4 20.1 12.9 55 5.4 SSW 17 30 9 16 1014.4 1014.4 0.0
16/05:30pm 22.7 21.0 12.3 52 5.9 SSW 13 24 7 13 1014.4 1014.4 0.0
16/05:00pm 23.0 21.2 12.0 50 6.2 S 13 22 7 12 1014.6 1014.6 0.0
16/04:30pm 22.4 20.1 11.8 51 6.0 SSW 15 28 8 15 1014.8 1014.8 0.0
16/04:00pm 23.6 21.6 11.6 47 6.8 S 13 22 7 12 1014.6 1014.6 0.0
16/03:30pm 23.1 20.7 10.2 44 7.1 S 13 22 7 12 1014.6 1014.6 0.0
16/03:00pm 23.2 21.4 10.9 46 6.8 SSW 11 22 6 12 1014.7 1014.7 0.0
16/02:30pm 23.2 21.0 10.9 46 6.8 SSW 13 24 7 13 1014.9 1014.9 0.0
16/02:00pm 22.8 20.5 10.3 45 6.8 SSW 13 20 7 11 1014.8 1014.8 0.0
16/01:30pm 22.4 20.6 10.9 48 6.4 S 11 20 6 11 1015.0 1015.0 0.0
16/01:00pm 22.0 19.6 9.9 46 6.5 SSW 13 20 7 11 1015.1 1015.1 0.0
16/12:30pm 21.6 19.5 11.3 52 5.7 SSW 13 20 7 11 1015.2 1015.2 0.0
16/12:00pm 20.4 18.2 12.1 59 4.6 SSW 15 20 8 11 1015.4 1015.4 0.0
16/11:30am 20.7 19.9 13.9 65 3.9 SSW 11 20 6 11 1015.2 1015.2 0.0
16/11:00am 20.6 20.0 13.6 64 4.0 S 9 17 5 9 1015.2 1015.2 0.0
16/10:30am 20.2 19.7 13.9 67 3.6 SSW 9 17 5 9 1015.1 1015.1 0.0
16/10:00am 19.6 18.6 13.3 67 3.6 S 11 20 6 11 1015.1 1015.1 0.0
16/09:30am 19.4 18.6 12.9 66 3.7 S 9 15 5 8 1015.0 1015.0 0.0
16/09:00am 18.7 18.5 13.6 72 2.9 SSW 7 11 4 6 1014.9 1014.9 0.0
16/08:30am 19.1 18.9 13.1 68 3.4 SSE 6 9 3 5 1014.6 1014.6 0.0
16/08:00am 18.8 19.1 12.3 66 3.6 SW 2 7 1 4 1014.4 1014.4 0.0
16/07:30am 17.4 17.6 11.9 70 3.0 SSW 2 7 1 4 1014.1 1014.1 0.0
16/07:00am 16.5 16.6 11.6 73 2.7 SSW 2 7 1 4 1013.7 1013.7 0.0
16/06:30am 15.0 15.9 12.9 87 1.2 CALM 0 2 0 1 1013.1 1013.1 0.0
16/06:00am 13.9 14.6 12.3 90 0.9 CALM 0 0 0 0 1012.9 1012.9 0.0
16/05:30am 14.0 14.7 12.2 89 1.0 CALM 0 0 0 0 1012.7 1012.7 0.0
16/05:00am 14.4 15.1 12.1 86 1.2 CALM 0 0 0 0 1012.6 1012.6 0.0
16/04:30am 14.5 14.4 12.0 85 1.4 SE 4 7 2 4 1012.1 1012.1 0.0
16/04:00am 14.9 15.5 12.0 83 1.6 CALM 0 0 0 0 1012.4 1012.4 0.0
16/03:30am 15.3 15.8 11.7 79 1.9 CALM 0 0 0 0 1012.5 1012.5 0.0
16/03:21am 15.4 16.0 11.8 79 1.9 CALM 0 0 0 0 1012.5 1012.5 0.0
16/03:01am 15.9 16.3 11.3 74 2.5 CALM 0 0 0 0 1012.5 1012.5 0.0
16/03:00am 15.9 16.3 11.3 74 2.5 CALM 0 0 0 0 1012.5 1012.5 0.0
16/02:30am 16.3 16.5 11.7 74 2.5 S 2 6 1 3 1012.7 1012.7 0.0
16/02:00am 16.8 16.8 11.3 70 3.0 S 2 11 1 6 1012.7 1012.7 0.0
16/01:30am 16.4 16.6 10.7 69 3.0 CALM 0 0 0 0 1012.8 1012.8 0.0
16/01:00am 17.3 17.0 10.2 63 3.8 SSE 2 6 1 3 1012.8 1012.8 0.0
16/12:30am 17.8 16.8 10.4 62 3.9 S 6 11 3 6 1012.8 1012.8 0.0
16/12:00am 18.0 17.2 11.8 67 3.4 S 7 15 4 8 1012.8 1012.8 0.0
 
Date/Time
EDT
Temp
°C
App
Temp
°C
Dew
Point
°C
Rel
Hum
%
Delta-T
°C
Wind Press
QNH
hPa
Press
MSL
hPa
Rain since
9am
mm
Dir  Spd
km/h
Gust
km/h
Spd
kts
Gust
kts
15/11:30pm 18.1 16.7 12.1 68 3.3 S 11 19 6 10 1012.8 1012.8 0.0
15/11:00pm 18.4 17.4 12.2 67 3.4 S 9 17 5 9 1012.6 1012.6 0.0
15/10:30pm 18.9 17.3 11.5 62 4.1 S 11 24 6 13 1012.2 1012.2 0.0
15/10:00pm 19.3 18.4 11.3 60 4.4 S 7 17 4 9 1011.9 1011.9 0.0
15/09:30pm 19.9 18.6 11.1 57 4.8 SSE 9 15 5 8 1011.5 1011.5 0.0
15/09:00pm 20.5 19.2 10.0 51 5.7 S 7 15 4 8 1011.1 1011.1 0.0
15/08:30pm 21.0 18.9 11.3 54 5.4 S 13 24 7 13 1010.8 1010.8 0.0
15/08:00pm 22.0 19.6 11.4 51 5.9 SE 15 24 8 13 1010.1 1010.1 0.0
15/07:30pm 23.5 21.7 12.2 49 6.4 SSE 13 22 7 12 1009.6 1009.6 0.0
15/07:00pm 24.3 22.4 11.9 45 7.1 SSE 13 26 7 14 1009.1 1009.1 0.0
15/06:30pm 24.8 23.7 13.0 47 6.8 SSW 11 22 6 12 1008.8 1008.8 0.0
15/06:00pm 25.1 24.3 13.0 47 7.0 S 9 22 5 12 1008.7 1008.7 0.0
15/05:30pm 25.6 24.5 12.1 43 7.7 SSW 9 15 5 8 1008.6 1008.6 0.0
15/05:00pm 23.6 21.1 11.0 45 7.0 SSW 15 26 8 14 1008.9 1008.9 0.0
15/04:30pm 24.4 22.8 12.7 48 6.7 SSW 13 20 7 11 1008.9 1008.9 0.0
15/04:00pm 24.2 22.3 11.9 46 7.0 SSW 13 20 7 11 1009.1 1009.1 0.0
15/03:30pm 23.8 21.6 10.8 44 7.2 SSW 13 24 7 13 1009.4 1009.4 0.0
15/03:00pm 23.1 19.8 9.5 42 7.4 SSW 17 24 9 13 1009.7 1009.7 0.0
15/02:30pm 23.0 20.2 10.1 44 7.0 SSW 15 22 8 12 1010.0 1010.0 0.0
15/02:00pm 22.7 20.4 10.5 46 6.7 SW 13 22 7 12 1010.4 1010.4 0.0
15/01:30pm 22.2 20.4 10.7 48 6.3 SSW 11 20 6 11 1010.8 1010.8 0.0
15/01:00pm 21.4 19.2 10.9 51 5.8 SSW 13 19 7 10 1011.3 1011.3 0.0
15/12:30pm 21.3 19.9 12.2 56 5.1 SSW 11 20 6 11 1011.6 1011.6 0.0
15/12:00pm 20.1 17.7 10.2 53 5.3 S 13 20 7 11 1012.0 1012.0 0.0
15/11:30am 20.9 19.8 12.1 57 4.9 SW 9 17 5 9 1012.2 1012.2 0.0
15/11:00am 19.8 18.0 10.8 56 4.9 S 11 19 6 10 1012.3 1012.3 0.0
15/10:30am 19.8 18.0 10.8 56 4.9 SSW 11 15 6 8 1012.5 1012.5 0.0
15/10:00am 20.0 18.8 8.0 46 6.2 NE 4 13 2 7 1012.7 1012.7 0.0
15/09:30am 19.0 17.8 9.5 54 5.0 SE 6 11 3 6 1012.9 1012.9 0.0
15/09:00am 18.4 16.7 10.0 58 4.5 SSE 9 17 5 9 1013.1 1013.1 0.0
15/08:30am 18.4 17.3 10.8 61 4.1 SE 7 13 4 7 1013.1 1013.1 0.0
15/08:00am 17.7 16.1 10.3 62 3.9 ESE 9 15 5 8 1012.9 1012.9 0.0
15/07:30am 17.1 16.0 10.5 65 3.5 SE 7 13 4 7 1012.8 1012.8 0.0
15/07:00am 16.5 15.6 10.8 69 3.0 SE 6 11 3 6 1012.7 1012.7 0.0
15/06:30am 14.5 15.1 12.0 85 1.4 CALM 0 0 0 0 1012.5 1012.5 0.0
15/06:00am 14.3 14.8 11.5 83 1.5 CALM 0 0 0 0 1012.4 1012.4 0.0
15/05:30am 14.2 14.4 10.6 79 1.9 CALM 0 0 0 0 1012.2 1012.2 0.0
15/05:00am 14.5 14.7 10.5 77 2.1 CALM 0 0 0 0 1012.1 1012.1 0.0
15/04:30am 14.9 14.7 10.5 75 2.3 ESE 2 7 1 4 1012.1 1012.1 0.0
15/04:00am 15.1 14.9 10.5 74 2.4 E 2 7 1 4 1012.1 1012.1 0.0
15/03:30am 15.3 14.3 10.3 72 2.6 ESE 6 11 3 6 1012.2 1012.2 0.0
15/03:00am 15.3 15.2 10.7 74 2.4 SE 2 7 1 4 1012.3 1012.3 0.0
15/02:30am 15.5 15.0 10.7 73 2.5 SE 4 7 2 4 1012.5 1012.5 0.0
15/02:00am 15.1 15.0 10.7 75 2.3 SSE 2 7 1 4 1012.6 1012.6 0.0
15/01:30am 15.2 15.3 10.2 72 2.6 CALM 0 0 0 0 1012.8 1012.8 0.0
15/01:00am 15.5 15.6 10.1 70 2.8 CALM 0 2 0 1 1012.9 1012.9 0.0
15/12:30am 16.1 15.6 9.3 64 3.5 SSE 2 7 1 4 1013.1 1013.1 0.0
15/12:00am 16.5 15.0 9.0 61 3.9 SSE 7 11 4 6 1013.3 1013.3 0.0
 
Date/Time
EDT
Temp
°C
App
Temp
°C
Dew
Point
°C
Rel
Hum
%
Delta-T
°C
Wind Press
QNH
hPa
Press
MSL
hPa
Rain since
9am
mm
Dir  Spd
km/h
Gust
km/h
Spd
kts
Gust
kts
14/11:30pm 16.9 15.0 9.1 60 4.0 SSE 9 13 5 7 1013.2 1013.2 0.0
14/11:00pm 17.4 15.5 7.7 53 4.9 S 7 13 4 7 1013.2 1013.2 0.0
14/10:30pm 17.9 15.6 7.6 51 5.2 SSE 9 17 5 9 1013.0 1013.0 0.0
14/10:00pm 18.0 15.6 8.8 55 4.8 SSE 11 20 6 11 1012.8 1012.8 0.0
14/09:30pm 18.1 16.1 10.2 60 4.2 SSE 11 20 6 11 1012.5 1012.5 0.0
14/09:00pm 18.3 16.5 10.7 61 4.1 SSE 11 20 6 11 1012.1 1012.1 0.0
14/08:30pm 18.5 16.8 11.3 63 3.9 S 11 20 6 11 1011.7 1011.7 0.0
14/08:00pm 19.0 17.1 11.8 63 4.0 S 13 28 7 15 1011.2 1011.2 0.0
14/07:30pm 19.8 17.8 11.6 59 4.5 SSW 13 22 7 12 1010.8 1010.8 0.0
14/07:00pm 19.5 16.7 11.3 59 4.5 S 17 30 9 16 1010.3 1010.3 0.0
14/06:30pm 20.2 17.7 11.1 56 5.0 SSE 15 28 8 15 1009.9 1009.9 0.0
14/06:00pm 20.9 18.1 11.5 55 5.2 S 17 33 9 18 1009.7 1009.7 0.0
14/05:30pm 20.5 17.9 12.0 58 4.7 S 17 30 9 16 1009.2 1009.2 0.0
14/05:00pm 20.8 18.5 13.0 61 4.4 S 17 32 9 17 1009.1 1009.1 0.0
14/04:30pm 20.6 17.9 12.8 61 4.4 S 19 32 10 17 1008.9 1008.9 0.0
14/04:00pm 20.6 18.6 13.8 65 3.9 S 17 28 9 15 1008.6 1008.6 0.0
14/03:30pm 21.4 19.9 15.3 68 3.6 SSW 17 28 9 15 1008.3 1008.3 0.0
14/03:00pm 21.5 20.8 15.3 68 3.7 SSW 13 24 7 13 1008.1 1008.1 0.0
14/02:30pm 22.8 22.5 15.4 63 4.4 SSW 11 22 6 12 1008.0 1008.0 0.0
14/02:00pm 22.5 21.8 15.4 64 4.3 SSW 13 22 7 12 1008.0 1008.0 0.0
14/01:30pm 22.5 22.2 16.5 69 3.7 S 13 20 7 11 1008.0 1008.0 0.0
14/01:00pm 22.1 20.8 15.9 68 3.7 SSW 17 39 9 21 1008.1 1008.1 0.0
14/12:30pm 21.7 20.0 14.8 65 4.1 SSW 17 26 9 14 1007.8 1007.8 0.0
14/12:00pm 21.5 20.9 15.6 69 3.5 S 13 22 7 12 1007.6 1007.6 0.0
14/11:30am 21.0 19.6 15.5 71 3.3 S 17 32 9 17 1007.6 1007.6 0.0
14/11:00am 21.2 19.6 16.0 72 3.1 S 19 33 10 18 1007.2 1007.2 0.0
14/10:30am 22.1 21.3 15.2 65 4.1 SW 13 22 7 12 1006.9 1006.9 0.0
14/10:00am 21.2 20.2 15.5 70 3.4 S 15 26 8 14 1006.8 1006.8 0.0
14/09:30am 20.9 20.1 15.2 70 3.4 S 13 24 7 13 1006.4 1006.4 0.0
14/09:00am 21.1 20.5 15.6 71 3.3 S 13 20 7 11 1006.0 1006.0 0.0
14/08:30am 21.0 20.8 14.6 67 3.7 SW 9 20 5 11 1005.5 1005.5 0.0
14/08:00am 21.2 20.8 14.1 64 4.1 SW 9 22 5 12 1005.0 1005.0 0.0
14/07:30am 21.6 20.5 13.0 58 4.9 SW 11 24 6 13 1004.2 1004.2 0.0
14/07:00am 22.7 21.0 12.6 53 5.8 WSW 13 24 7 13 1003.2 1003.2 0.0
14/06:30am 23.4 22.8 12.4 50 6.3 SSW 7 13 4 7 1002.4 1002.4 0.0
14/06:00am 23.1 23.4 12.1 50 6.3 S 2 6 1 3 1001.8 1001.8 0.0
14/05:30am 23.6 23.8 10.6 44 7.2 CALM 0 2 0 1 1001.6 1001.6 0.0
14/05:00am 24.5 22.4 9.6 39 8.2 NNE 11 15 6 8 1001.0 1001.0 0.0
14/04:30am 24.6 23.1 9.3 38 8.3 N 7 11 4 6 1002.5 1002.5 0.0
14/04:00am 25.3 23.3 8.7 35 9.0 NNE 9 17 5 9 1001.9 1001.9 0.0
14/03:30am 25.4 23.8 8.8 35 9.0 NNE 7 11 4 6 1002.1 1002.1 0.0
14/03:05am 25.9 23.8 8.4 33 9.4 NNE 9 15 5 8 1002.2 1002.2 0.0
14/03:00am 25.9 23.4 8.4 33 9.5 NE 11 15 6 8 1002.4 1002.4 0.0
14/02:47am 24.9 24.8 9.6 38 8.4 CALM 0 6 0 3 1003.3 1003.3 0.0
14/02:30am 25.6 24.6 9.0 35 9.0 NW 4 7 2 4 1003.7 1003.7 0.0
14/02:00am 25.9 25.2 8.4 33 9.5 W 2 9 1 5 1003.4 1003.4 0.0
14/01:30am 26.0 25.5 8.0 32 9.6 CALM 0 2 0 1 1003.6 1003.6 0.0
14/01:00am 26.8 25.5 7.8 30 10.2 W 4 11 2 6 1004.2 1004.2 0.0
14/12:30am 26.9 26.0 7.9 30 10.2 WSW 2 7 1 4 1004.3 1004.3 0.0
14/12:00am 27.3 25.7 8.2 30 10.4 WNW 6 9 3 5 1004.4 1004.4 0.0

Latest Capital City Observations: Canberra | Sydney | Melbourne | Brisbane | Adelaide | Perth | Hobart | Darwin

Other Formats:

Comma delimited format used in spreadsheet applications
http://www.bom.gov.au/fwo/IDV60901/IDV60901.95936.axf

JavaScript Object Notation format (JSON) in row-major order
http://www.bom.gov.au/fwo/IDV60901/IDV60901.95936.json